sensor_id;sensor_type;location;lat;lon;timestamp;P1;durP1;ratioP1;P2;durP2;ratioP2
16813;SDS011;8524;57.650;11.926;2023-11-19T00:00:47;2.93;;;2.20;;
16813;SDS011;8524;57.650;11.926;2023-11-19T00:03:14;2.50;;;2.10;;
16813;SDS011;8524;57.650;11.926;2023-11-19T00:05:42;2.50;;;2.23;;
16813;SDS011;8524;57.650;11.926;2023-11-19T00:08:09;2.33;;;2.13;;
16813;SDS011;8524;57.650;11.926;2023-11-19T00:10:36;2.57;;;2.00;;
16813;SDS011;8524;57.650;11.926;2023-11-19T00:13:03;2.67;;;1.93;;
16813;SDS011;8524;57.650;11.926;2023-11-19T00:15:30;3.27;;;2.27;;
16813;SDS011;8524;57.650;11.926;2023-11-19T00:17:57;2.50;;;2.30;;
16813;SDS011;8524;57.650;11.926;2023-11-19T00:20:24;2.73;;;1.97;;
16813;SDS011;8524;57.650;11.926;2023-11-19T00:22:52;2.50;;;2.30;;
16813;SDS011;8524;57.650;11.926;2023-11-19T00:25:19;3.03;;;2.58;;
16813;SDS011;8524;57.650;11.926;2023-11-19T00:27:46;2.72;;;2.10;;
16813;SDS011;8524;57.650;11.926;2023-11-19T00:30:13;2.60;;;1.70;;
16813;SDS011;8524;57.650;11.926;2023-11-19T00:32:41;2.23;;;2.03;;
16813;SDS011;8524;57.650;11.926;2023-11-19T00:35:09;2.38;;;2.15;;
16813;SDS011;8524;57.650;11.926;2023-11-19T00:37:36;3.15;;;2.30;;
16813;SDS011;8524;57.650;11.926;2023-11-19T00:40:05;2.47;;;2.28;;
16813;SDS011;8524;57.650;11.926;2023-11-19T00:42:33;2.30;;;2.10;;
16813;SDS011;8524;57.650;11.926;2023-11-19T00:44:59;2.42;;;2.22;;
16813;SDS011;8524;57.650;11.926;2023-11-19T00:47:27;2.50;;;2.30;;
16813;SDS011;8524;57.650;11.926;2023-11-19T00:49:56;2.40;;;2.20;;
16813;SDS011;8524;57.650;11.926;2023-11-19T00:52:23;2.50;;;2.20;;
16813;SDS011;8524;57.650;11.926;2023-11-19T00:54:49;2.55;;;2.35;;
16813;SDS011;8524;57.650;11.926;2023-11-19T00:57:18;2.25;;;2.13;;
16813;SDS011;8524;57.650;11.926;2023-11-19T00:59:44;2.40;;;1.93;;
16813;SDS011;8524;57.650;11.926;2023-11-19T01:02:12;2.70;;;2.50;;
16813;SDS011;8524;57.650;11.926;2023-11-19T01:04:39;2.30;;;2.10;;
16813;SDS011;8524;57.650;11.926;2023-11-19T01:07:06;3.07;;;2.03;;
16813;SDS011;8524;57.650;11.926;2023-11-19T01:09:34;2.67;;;2.20;;
16813;SDS011;8524;57.650;11.926;2023-11-19T01:12:01;2.27;;;2.07;;
16813;SDS011;8524;57.650;11.926;2023-11-19T01:14:29;2.77;;;2.00;;
16813;SDS011;8524;57.650;11.926;2023-11-19T01:16:56;2.35;;;2.15;;
16813;SDS011;8524;57.650;11.926;2023-11-19T01:19:23;2.60;;;2.03;;
16813;SDS011;8524;57.650;11.926;2023-11-19T01:21:50;2.70;;;2.42;;
16813;SDS011;8524;57.650;11.926;2023-11-19T01:24:17;2.40;;;2.20;;
16813;SDS011;8524;57.650;11.926;2023-11-19T01:26:44;2.20;;;2.00;;
16813;SDS011;8524;57.650;11.926;2023-11-19T01:29:11;2.20;;;2.00;;
16813;SDS011;8524;57.650;11.926;2023-11-19T01:31:41;2.00;;;1.90;;
16813;SDS011;8524;57.650;11.926;2023-11-19T01:34:08;2.10;;;1.90;;
16813;SDS011;8524;57.650;11.926;2023-11-19T01:36:36;2.50;;;2.30;;
16813;SDS011;8524;57.650;11.926;2023-11-19T01:39:04;2.47;;;2.27;;
16813;SDS011;8524;57.650;11.926;2023-11-19T01:41:33;2.43;;;2.20;;
16813;SDS011;8524;57.650;11.926;2023-11-19T01:44:01;2.10;;;1.90;;
16813;SDS011;8524;57.650;11.926;2023-11-19T01:46:28;2.07;;;1.97;;
16813;SDS011;8524;57.650;11.926;2023-11-19T01:48:59;2.42;;;2.22;;
16813;SDS011;8524;57.650;11.926;2023-11-19T01:51:27;2.60;;;2.40;;
16813;SDS011;8524;57.650;11.926;2023-11-19T01:53:55;2.27;;;2.07;;
16813;SDS011;8524;57.650;11.926;2023-11-19T01:56:23;1.90;;;1.80;;
16813;SDS011;8524;57.650;11.926;2023-11-19T01:58:51;2.50;;;2.30;;
16813;SDS011;8524;57.650;11.926;2023-11-19T02:01:19;2.23;;;2.03;;
16813;SDS011;8524;57.650;11.926;2023-11-19T02:03:46;2.38;;;2.20;;
16813;SDS011;8524;57.650;11.926;2023-11-19T02:06:15;2.70;;;2.50;;
16813;SDS011;8524;57.650;11.926;2023-11-19T02:08:42;2.30;;;2.10;;
16813;SDS011;8524;57.650;11.926;2023-11-19T02:11:09;2.20;;;1.97;;
16813;SDS011;8524;57.650;11.926;2023-11-19T02:13:37;2.30;;;1.97;;
16813;SDS011;8524;57.650;11.926;2023-11-19T02:16:06;2.27;;;1.87;;
16813;SDS011;8524;57.650;11.926;2023-11-19T02:18:34;2.20;;;1.97;;
16813;SDS011;8524;57.650;11.926;2023-11-19T02:21:01;2.03;;;1.93;;
16813;SDS011;8524;57.650;11.926;2023-11-19T02:23:31;2.87;;;1.90;;
16813;SDS011;8524;57.650;11.926;2023-11-19T02:26:03;2.37;;;2.17;;
16813;SDS011;8524;57.650;11.926;2023-11-19T02:28:40;2.10;;;1.90;;
16813;SDS011;8524;57.650;11.926;2023-11-19T02:31:08;2.40;;;2.20;;
16813;SDS011;8524;57.650;11.926;2023-11-19T02:33:37;2.00;;;1.80;;
16813;SDS011;8524;57.650;11.926;2023-11-19T02:36:04;2.55;;;2.35;;
16813;SDS011;8524;57.650;11.926;2023-11-19T02:38:32;1.73;;;1.63;;
16813;SDS011;8524;57.650;11.926;2023-11-19T02:40:59;1.80;;;1.60;;
16813;SDS011;8524;57.650;11.926;2023-11-19T02:43:29;2.40;;;2.20;;
16813;SDS011;8524;57.650;11.926;2023-11-19T02:45:59;1.70;;;1.60;;
16813;SDS011;8524;57.650;11.926;2023-11-19T02:48:26;2.10;;;1.90;;
16813;SDS011;8524;57.650;11.926;2023-11-19T02:50:53;2.03;;;1.73;;
16813;SDS011;8524;57.650;11.926;2023-11-19T02:53:23;2.10;;;1.90;;
16813;SDS011;8524;57.650;11.926;2023-11-19T02:55:52;2.43;;;1.80;;
16813;SDS011;8524;57.650;11.926;2023-11-19T02:58:26;2.03;;;1.60;;
16813;SDS011;8524;57.650;11.926;2023-11-19T03:00:53;1.87;;;1.77;;
16813;SDS011;8524;57.650;11.926;2023-11-19T03:03:25;2.25;;;2.10;;
16813;SDS011;8524;57.650;11.926;2023-11-19T03:06:03;2.17;;;2.00;;
16813;SDS011;8524;57.650;11.926;2023-11-19T03:08:30;2.30;;;2.10;;
16813;SDS011;8524;57.650;11.926;2023-11-19T03:10:57;2.00;;;1.90;;
16813;SDS011;8524;57.650;11.926;2023-11-19T03:13:24;2.20;;;2.00;;
16813;SDS011;8524;57.650;11.926;2023-11-19T03:15:52;2.30;;;2.10;;
16813;SDS011;8524;57.650;11.926;2023-11-19T03:18:18;1.70;;;1.60;;
16813;SDS011;8524;57.650;11.926;2023-11-19T03:20:47;3.00;;;1.80;;
16813;SDS011;8524;57.650;11.926;2023-11-19T03:23:14;1.53;;;1.43;;
16813;SDS011;8524;57.650;11.926;2023-11-19T03:25:41;2.20;;;2.00;;
16813;SDS011;8524;57.650;11.926;2023-11-19T03:28:08;1.87;;;1.77;;
16813;SDS011;8524;57.650;11.926;2023-11-19T03:30:36;2.00;;;1.80;;
16813;SDS011;8524;57.650;11.926;2023-11-19T03:33:03;1.87;;;1.57;;
16813;SDS011;8524;57.650;11.926;2023-11-19T03:35:30;1.97;;;1.77;;
16813;SDS011;8524;57.650;11.926;2023-11-19T03:37:59;1.60;;;1.50;;
16813;SDS011;8524;57.650;11.926;2023-11-19T03:40:26;2.03;;;1.93;;
16813;SDS011;8524;57.650;11.926;2023-11-19T03:42:55;1.90;;;1.80;;
16813;SDS011;8524;57.650;11.926;2023-11-19T03:45:22;2.20;;;2.00;;
16813;SDS011;8524;57.650;11.926;2023-11-19T03:47:49;1.97;;;1.80;;
16813;SDS011;8524;57.650;11.926;2023-11-19T03:50:16;2.00;;;1.80;;
16813;SDS011;8524;57.650;11.926;2023-11-19T03:52:45;2.30;;;2.10;;
16813;SDS011;8524;57.650;11.926;2023-11-19T03:55:13;2.20;;;2.00;;
16813;SDS011;8524;57.650;11.926;2023-11-19T03:57:40;2.53;;;1.90;;
16813;SDS011;8524;57.650;11.926;2023-11-19T04:00:07;3.63;;;1.93;;
16813;SDS011;8524;57.650;11.926;2023-11-19T04:02:35;4.57;;;2.10;;
16813;SDS011;8524;57.650;11.926;2023-11-19T04:05:02;2.57;;;1.87;;
16813;SDS011;8524;57.650;11.926;2023-11-19T04:07:30;2.55;;;2.35;;
16813;SDS011;8524;57.650;11.926;2023-11-19T04:09:56;2.13;;;1.93;;
16813;SDS011;8524;57.650;11.926;2023-11-19T04:12:25;2.23;;;1.90;;
16813;SDS011;8524;57.650;11.926;2023-11-19T04:14:52;2.90;;;1.87;;
16813;SDS011;8524;57.650;11.926;2023-11-19T04:17:19;2.90;;;2.60;;
16813;SDS011;8524;57.650;11.926;2023-11-19T04:19:45;2.30;;;2.10;;
16813;SDS011;8524;57.650;11.926;2023-11-19T04:22:13;2.60;;;2.40;;
16813;SDS011;8524;57.650;11.926;2023-11-19T04:24:40;2.57;;;1.87;;
16813;SDS011;8524;57.650;11.926;2023-11-19T04:27:09;2.17;;;1.98;;
16813;SDS011;8524;57.650;11.926;2023-11-19T04:29:37;1.80;;;1.67;;
16813;SDS011;8524;57.650;11.926;2023-11-19T04:32:04;2.20;;;2.00;;
16813;SDS011;8524;57.650;11.926;2023-11-19T04:34:32;1.93;;;1.80;;
16813;SDS011;8524;57.650;11.926;2023-11-19T04:36:59;2.47;;;2.13;;
16813;SDS011;8524;57.650;11.926;2023-11-19T04:39:28;2.60;;;2.40;;
16813;SDS011;8524;57.650;11.926;2023-11-19T04:41:55;1.83;;;1.70;;
16813;SDS011;8524;57.650;11.926;2023-11-19T04:44:22;3.07;;;1.97;;
16813;SDS011;8524;57.650;11.926;2023-11-19T04:46:50;1.97;;;1.77;;
16813;SDS011;8524;57.650;11.926;2023-11-19T04:49:17;2.20;;;2.00;;
16813;SDS011;8524;57.650;11.926;2023-11-19T04:51:44;1.93;;;1.80;;
16813;SDS011;8524;57.650;11.926;2023-11-19T04:54:13;2.17;;;1.77;;
16813;SDS011;8524;57.650;11.926;2023-11-19T04:56:40;2.33;;;2.13;;
16813;SDS011;8524;57.650;11.926;2023-11-19T04:59:11;2.17;;;1.98;;
16813;SDS011;8524;57.650;11.926;2023-11-19T05:01:38;2.17;;;1.97;;
16813;SDS011;8524;57.650;11.926;2023-11-19T05:04:07;2.60;;;2.40;;
16813;SDS011;8524;57.650;11.926;2023-11-19T05:06:34;2.30;;;2.08;;
16813;SDS011;8524;57.650;11.926;2023-11-19T05:09:01;1.70;;;1.60;;
16813;SDS011;8524;57.650;11.926;2023-11-19T05:11:32;1.97;;;1.87;;
16813;SDS011;8524;57.650;11.926;2023-11-19T05:13:59;2.20;;;2.00;;
16813;SDS011;8524;57.650;11.926;2023-11-19T05:16:26;1.90;;;1.80;;
16813;SDS011;8524;57.650;11.926;2023-11-19T05:18:53;2.47;;;2.28;;
16813;SDS011;8524;57.650;11.926;2023-11-19T05:21:21;2.50;;;2.30;;
16813;SDS011;8524;57.650;11.926;2023-11-19T05:23:48;2.60;;;2.40;;
16813;SDS011;8524;57.650;11.926;2023-11-19T05:26:18;2.40;;;2.20;;
16813;SDS011;8524;57.650;11.926;2023-11-19T05:28:46;2.40;;;2.20;;
16813;SDS011;8524;57.650;11.926;2023-11-19T05:31:14;2.45;;;2.25;;
16813;SDS011;8524;57.650;11.926;2023-11-19T05:33:42;2.10;;;1.90;;
16813;SDS011;8524;57.650;11.926;2023-11-19T05:36:10;1.95;;;1.83;;
16813;SDS011;8524;57.650;11.926;2023-11-19T05:38:39;2.10;;;1.80;;
16813;SDS011;8524;57.650;11.926;2023-11-19T05:41:06;1.90;;;1.67;;
16813;SDS011;8524;57.650;11.926;2023-11-19T05:43:33;2.10;;;1.90;;
16813;SDS011;8524;57.650;11.926;2023-11-19T05:46:00;2.03;;;1.87;;
16813;SDS011;8524;57.650;11.926;2023-11-19T05:48:27;1.77;;;1.67;;
16813;SDS011;8524;57.650;11.926;2023-11-19T05:50:54;2.50;;;2.00;;
16813;SDS011;8524;57.650;11.926;2023-11-19T05:53:21;2.03;;;1.57;;
16813;SDS011;8524;57.650;11.926;2023-11-19T05:55:49;1.90;;;1.70;;
16813;SDS011;8524;57.650;11.926;2023-11-19T05:58:21;2.30;;;2.10;;
16813;SDS011;8524;57.650;11.926;2023-11-19T06:00:50;2.10;;;1.90;;
16813;SDS011;8524;57.650;11.926;2023-11-19T06:03:17;2.40;;;1.83;;
16813;SDS011;8524;57.650;11.926;2023-11-19T06:05:44;2.50;;;2.30;;
16813;SDS011;8524;57.650;11.926;2023-11-19T06:08:11;2.30;;;2.10;;
16813;SDS011;8524;57.650;11.926;2023-11-19T06:10:39;2.60;;;2.40;;
16813;SDS011;8524;57.650;11.926;2023-11-19T06:13:07;2.13;;;2.00;;
16813;SDS011;8524;57.650;11.926;2023-11-19T06:15:35;2.28;;;2.08;;
16813;SDS011;8524;57.650;11.926;2023-11-19T06:18:02;2.20;;;2.00;;
16813;SDS011;8524;57.650;11.926;2023-11-19T06:20:29;1.77;;;1.63;;
16813;SDS011;8524;57.650;11.926;2023-11-19T06:22:56;2.10;;;1.70;;
16813;SDS011;8524;57.650;11.926;2023-11-19T06:25:23;2.10;;;1.90;;
16813;SDS011;8524;57.650;11.926;2023-11-19T06:27:50;2.30;;;2.10;;
16813;SDS011;8524;57.650;11.926;2023-11-19T06:30:19;2.20;;;2.00;;
16813;SDS011;8524;57.650;11.926;2023-11-19T06:32:46;1.87;;;1.60;;
16813;SDS011;8524;57.650;11.926;2023-11-19T06:35:13;2.30;;;2.10;;
16813;SDS011;8524;57.650;11.926;2023-11-19T06:37:40;2.15;;;1.95;;
16813;SDS011;8524;57.650;11.926;2023-11-19T06:40:07;2.10;;;1.90;;
16813;SDS011;8524;57.650;11.926;2023-11-19T06:42:35;1.80;;;1.70;;
16813;SDS011;8524;57.650;11.926;2023-11-19T06:45:02;1.70;;;1.60;;
16813;SDS011;8524;57.650;11.926;2023-11-19T06:47:30;2.00;;;1.80;;
16813;SDS011;8524;57.650;11.926;2023-11-19T06:49:57;2.10;;;1.90;;
16813;SDS011;8524;57.650;11.926;2023-11-19T06:52:24;2.42;;;2.20;;
16813;SDS011;8524;57.650;11.926;2023-11-19T06:54:51;2.22;;;2.03;;
16813;SDS011;8524;57.650;11.926;2023-11-19T06:57:18;2.63;;;2.30;;
16813;SDS011;8524;57.650;11.926;2023-11-19T06:59:45;2.30;;;2.10;;
16813;SDS011;8524;57.650;11.926;2023-11-19T07:02:12;1.90;;;1.80;;
16813;SDS011;8524;57.650;11.926;2023-11-19T07:04:40;1.97;;;1.77;;
16813;SDS011;8524;57.650;11.926;2023-11-19T07:07:07;1.90;;;1.77;;
16813;SDS011;8524;57.650;11.926;2023-11-19T07:09:34;2.20;;;2.00;;
16813;SDS011;8524;57.650;11.926;2023-11-19T07:12:02;1.80;;;1.70;;
16813;SDS011;8524;57.650;11.926;2023-11-19T07:14:30;2.30;;;2.10;;
16813;SDS011;8524;57.650;11.926;2023-11-19T07:16:56;1.60;;;1.50;;
16813;SDS011;8524;57.650;11.926;2023-11-19T07:19:25;1.87;;;1.63;;
16813;SDS011;8524;57.650;11.926;2023-11-19T07:21:53;2.90;;;2.00;;
16813;SDS011;8524;57.650;11.926;2023-11-19T07:24:21;2.20;;;2.00;;
16813;SDS011;8524;57.650;11.926;2023-11-19T07:26:48;2.60;;;2.40;;
16813;SDS011;8524;57.650;11.926;2023-11-19T07:29:15;2.20;;;2.00;;
16813;SDS011;8524;57.650;11.926;2023-11-19T07:31:42;2.38;;;2.17;;
16813;SDS011;8524;57.650;11.926;2023-11-19T07:34:10;2.45;;;2.25;;
16813;SDS011;8524;57.650;11.926;2023-11-19T07:36:37;2.40;;;2.20;;
16813;SDS011;8524;57.650;11.926;2023-11-19T07:39:05;2.47;;;2.10;;
16813;SDS011;8524;57.650;11.926;2023-11-19T07:41:33;2.50;;;2.30;;
16813;SDS011;8524;57.650;11.926;2023-11-19T07:44:00;1.93;;;1.83;;
16813;SDS011;8524;57.650;11.926;2023-11-19T07:46:27;2.13;;;1.70;;
16813;SDS011;8524;57.650;11.926;2023-11-19T07:48:54;2.23;;;2.00;;
16813;SDS011;8524;57.650;11.926;2023-11-19T07:51:21;3.33;;;2.17;;
16813;SDS011;8524;57.650;11.926;2023-11-19T07:53:48;2.50;;;2.17;;
16813;SDS011;8524;57.650;11.926;2023-11-19T07:56:16;2.17;;;2.00;;
16813;SDS011;8524;57.650;11.926;2023-11-19T07:58:43;2.42;;;2.20;;
16813;SDS011;8524;57.650;11.926;2023-11-19T08:01:10;2.70;;;2.27;;
16813;SDS011;8524;57.650;11.926;2023-11-19T08:03:37;3.28;;;2.50;;
16813;SDS011;8524;57.650;11.926;2023-11-19T08:06:05;2.73;;;2.53;;
16813;SDS011;8524;57.650;11.926;2023-11-19T08:08:32;2.63;;;2.42;;
16813;SDS011;8524;57.650;11.926;2023-11-19T08:11:00;2.53;;;2.33;;
16813;SDS011;8524;57.650;11.926;2023-11-19T08:13:28;2.80;;;2.60;;
16813;SDS011;8524;57.650;11.926;2023-11-19T08:15:56;3.20;;;2.47;;
16813;SDS011;8524;57.650;11.926;2023-11-19T08:18:23;2.70;;;2.50;;
16813;SDS011;8524;57.650;11.926;2023-11-19T08:20:50;2.72;;;2.40;;
16813;SDS011;8524;57.650;11.926;2023-11-19T08:23:18;2.47;;;2.27;;
16813;SDS011;8524;57.650;11.926;2023-11-19T08:25:45;2.50;;;2.30;;
16813;SDS011;8524;57.650;11.926;2023-11-19T08:28:12;2.80;;;2.60;;
16813;SDS011;8524;57.650;11.926;2023-11-19T08:30:41;2.92;;;2.55;;
16813;SDS011;8524;57.650;11.926;2023-11-19T08:33:09;2.92;;;2.22;;
16813;SDS011;8524;57.650;11.926;2023-11-19T08:35:36;2.85;;;2.55;;
16813;SDS011;8524;57.650;11.926;2023-11-19T08:38:03;2.30;;;2.10;;
16813;SDS011;8524;57.650;11.926;2023-11-19T08:40:30;2.65;;;2.45;;
16813;SDS011;8524;57.650;11.926;2023-11-19T08:42:57;2.43;;;2.23;;
16813;SDS011;8524;57.650;11.926;2023-11-19T08:45:24;2.60;;;2.03;;
16813;SDS011;8524;57.650;11.926;2023-11-19T08:47:53;3.03;;;2.72;;
16813;SDS011;8524;57.650;11.926;2023-11-19T08:50:20;2.50;;;2.30;;
16813;SDS011;8524;57.650;11.926;2023-11-19T08:52:47;2.77;;;2.50;;
16813;SDS011;8524;57.650;11.926;2023-11-19T08:55:14;3.00;;;2.67;;
16813;SDS011;8524;57.650;11.926;2023-11-19T08:57:41;2.73;;;2.53;;
16813;SDS011;8524;57.650;11.926;2023-11-19T09:00:08;2.27;;;2.07;;
16813;SDS011;8524;57.650;11.926;2023-11-19T09:02:39;2.50;;;2.30;;
16813;SDS011;8524;57.650;11.926;2023-11-19T09:05:07;2.53;;;2.33;;
16813;SDS011;8524;57.650;11.926;2023-11-19T09:07:34;2.90;;;2.70;;
16813;SDS011;8524;57.650;11.926;2023-11-19T09:10:01;2.80;;;2.60;;
16813;SDS011;8524;57.650;11.926;2023-11-19T09:12:30;2.80;;;2.60;;
16813;SDS011;8524;57.650;11.926;2023-11-19T09:14:57;2.63;;;2.40;;
16813;SDS011;8524;57.650;11.926;2023-11-19T09:17:24;3.77;;;2.73;;
16813;SDS011;8524;57.650;11.926;2023-11-19T09:19:51;3.25;;;2.95;;
16813;SDS011;8524;57.650;11.926;2023-11-19T09:22:19;3.20;;;2.90;;
16813;SDS011;8524;57.650;11.926;2023-11-19T09:24:46;3.50;;;3.17;;
16813;SDS011;8524;57.650;11.926;2023-11-19T09:27:13;3.43;;;2.67;;
16813;SDS011;8524;57.650;11.926;2023-11-19T09:29:40;3.13;;;2.70;;
16813;SDS011;8524;57.650;11.926;2023-11-19T09:32:08;2.40;;;2.20;;
16813;SDS011;8524;57.650;11.926;2023-11-19T09:34:35;3.17;;;2.97;;
16813;SDS011;8524;57.650;11.926;2023-11-19T09:37:01;3.05;;;2.75;;
16813;SDS011;8524;57.650;11.926;2023-11-19T09:39:30;3.30;;;3.00;;
16813;SDS011;8524;57.650;11.926;2023-11-19T09:41:57;2.97;;;2.43;;
16813;SDS011;8524;57.650;11.926;2023-11-19T09:44:24;2.83;;;2.60;;
16813;SDS011;8524;57.650;11.926;2023-11-19T09:46:51;3.25;;;2.80;;
16813;SDS011;8524;57.650;11.926;2023-11-19T09:49:20;3.00;;;2.70;;
16813;SDS011;8524;57.650;11.926;2023-11-19T09:51:48;3.23;;;2.43;;
16813;SDS011;8524;57.650;11.926;2023-11-19T09:54:15;2.80;;;2.50;;
16813;SDS011;8524;57.650;11.926;2023-11-19T09:56:44;3.10;;;2.80;;
16813;SDS011;8524;57.650;11.926;2023-11-19T09:59:11;3.25;;;2.95;;
16813;SDS011;8524;57.650;11.926;2023-11-19T10:01:38;3.10;;;2.87;;
16813;SDS011;8524;57.650;11.926;2023-11-19T10:04:06;2.90;;;2.60;;
16813;SDS011;8524;57.650;11.926;2023-11-19T10:06:33;2.80;;;2.60;;
16813;SDS011;8524;57.650;11.926;2023-11-19T10:09:00;3.33;;;2.70;;
16813;SDS011;8524;57.650;11.926;2023-11-19T10:11:30;3.40;;;3.10;;
16813;SDS011;8524;57.650;11.926;2023-11-19T10:13:58;3.53;;;3.22;;
16813;SDS011;8524;57.650;11.926;2023-11-19T10:16:28;3.53;;;3.22;;
16813;SDS011;8524;57.650;11.926;2023-11-19T10:18:56;4.30;;;3.20;;
16813;SDS011;8524;57.650;11.926;2023-11-19T10:21:23;3.42;;;2.90;;
16813;SDS011;8524;57.650;11.926;2023-11-19T10:23:53;3.40;;;3.10;;
16813;SDS011;8524;57.650;11.926;2023-11-19T10:26:22;3.17;;;2.88;;
16813;SDS011;8524;57.650;11.926;2023-11-19T10:28:49;3.00;;;2.70;;
16813;SDS011;8524;57.650;11.926;2023-11-19T10:31:18;3.37;;;3.07;;
16813;SDS011;8524;57.650;11.926;2023-11-19T10:33:48;3.13;;;2.83;;
16813;SDS011;8524;57.650;11.926;2023-11-19T10:36:14;3.23;;;2.70;;
16813;SDS011;8524;57.650;11.926;2023-11-19T10:38:41;3.00;;;2.70;;
16813;SDS011;8524;57.650;11.926;2023-11-19T10:41:26;3.60;;;3.30;;
16813;SDS011;8524;57.650;11.926;2023-11-19T10:43:53;3.83;;;3.00;;
16813;SDS011;8524;57.650;11.926;2023-11-19T10:46:21;2.90;;;2.70;;
16813;SDS011;8524;57.650;11.926;2023-11-19T10:48:48;3.67;;;3.38;;
16813;SDS011;8524;57.650;11.926;2023-11-19T10:51:18;3.60;;;3.03;;
16813;SDS011;8524;57.650;11.926;2023-11-19T10:53:48;3.45;;;3.15;;
16813;SDS011;8524;57.650;11.926;2023-11-19T10:56:16;4.73;;;3.33;;
16813;SDS011;8524;57.650;11.926;2023-11-19T10:58:46;3.22;;;2.95;;
16813;SDS011;8524;57.650;11.926;2023-11-19T11:01:16;3.03;;;2.80;;
16813;SDS011;8524;57.650;11.926;2023-11-19T11:03:47;3.33;;;2.77;;
16813;SDS011;8524;57.650;11.926;2023-11-19T11:06:16;3.25;;;3.00;;
16813;SDS011;8524;57.650;11.926;2023-11-19T11:08:44;5.63;;;3.47;;
16813;SDS011;8524;57.650;11.926;2023-11-19T11:11:13;3.13;;;2.87;;
16813;SDS011;8524;57.650;11.926;2023-11-19T11:13:42;3.43;;;3.13;;
16813;SDS011;8524;57.650;11.926;2023-11-19T11:16:10;3.33;;;3.03;;
16813;SDS011;8524;57.650;11.926;2023-11-19T11:18:37;4.70;;;3.30;;
16813;SDS011;8524;57.650;11.926;2023-11-19T11:21:07;3.63;;;3.30;;
16813;SDS011;8524;57.650;11.926;2023-11-19T11:23:44;3.77;;;3.27;;
16813;SDS011;8524;57.650;11.926;2023-11-19T11:26:32;3.88;;;3.15;;
16813;SDS011;8524;57.650;11.926;2023-11-19T11:29:20;3.43;;;3.10;;
16813;SDS011;8524;57.650;11.926;2023-11-19T11:31:56;3.40;;;3.10;;
16813;SDS011;8524;57.650;11.926;2023-11-19T11:34:36;4.10;;;3.70;;
16813;SDS011;8524;57.650;11.926;2023-11-19T11:37:18;3.90;;;3.60;;
16813;SDS011;8524;57.650;11.926;2023-11-19T11:39:49;4.43;;;4.03;;
16813;SDS011;8524;57.650;11.926;2023-11-19T11:42:34;3.87;;;3.47;;
16813;SDS011;8524;57.650;11.926;2023-11-19T11:45:02;4.17;;;3.27;;
16813;SDS011;8524;57.650;11.926;2023-11-19T11:50:51;4.10;;;3.70;;
16813;SDS011;8524;57.650;11.926;2023-11-19T11:53:21;3.80;;;3.50;;
16813;SDS011;8524;57.650;11.926;2023-11-19T11:55:55;4.90;;;3.73;;
16813;SDS011;8524;57.650;11.926;2023-11-19T11:58:28;4.73;;;3.70;;
16813;SDS011;8524;57.650;11.926;2023-11-19T12:00:58;4.50;;;3.90;;
16813;SDS011;8524;57.650;11.926;2023-11-19T12:03:27;5.97;;;4.23;;
16813;SDS011;8524;57.650;11.926;2023-11-19T12:05:55;4.13;;;3.63;;
16813;SDS011;8524;57.650;11.926;2023-11-19T12:08:28;3.90;;;3.60;;
16813;SDS011;8524;57.650;11.926;2023-11-19T12:10:57;6.33;;;4.23;;
16813;SDS011;8524;57.650;11.926;2023-11-19T12:13:24;4.32;;;3.92;;
16813;SDS011;8524;57.650;11.926;2023-11-19T12:16:09;4.90;;;3.90;;
16813;SDS011;8524;57.650;11.926;2023-11-19T12:18:38;4.73;;;4.20;;
16813;SDS011;8524;57.650;11.926;2023-11-19T12:21:07;5.13;;;4.30;;
16813;SDS011;8524;57.650;11.926;2023-11-19T12:23:43;5.25;;;4.05;;
16813;SDS011;8524;57.650;11.926;2023-11-19T12:26:34;4.17;;;3.73;;
16813;SDS011;8524;57.650;11.926;2023-11-19T12:29:02;5.35;;;4.40;;
16813;SDS011;8524;57.650;11.926;2023-11-19T12:31:33;4.30;;;3.90;;
16813;SDS011;8524;57.650;11.926;2023-11-19T12:34:08;4.40;;;3.93;;
16813;SDS011;8524;57.650;11.926;2023-11-19T12:36:37;4.40;;;4.00;;
16813;SDS011;8524;57.650;11.926;2023-11-19T12:39:07;4.53;;;3.80;;
16813;SDS011;8524;57.650;11.926;2023-11-19T12:41:53;4.27;;;3.87;;
16813;SDS011;8524;57.650;11.926;2023-11-19T12:44:20;4.33;;;3.90;;
16813;SDS011;8524;57.650;11.926;2023-11-19T12:46:58;4.63;;;4.10;;
16813;SDS011;8524;57.650;11.926;2023-11-19T12:49:26;3.87;;;3.57;;
16813;SDS011;8524;57.650;11.926;2023-11-19T12:51:53;4.87;;;4.03;;
16813;SDS011;8524;57.650;11.926;2023-11-19T12:54:30;3.57;;;3.00;;
16813;SDS011;8524;57.650;11.926;2023-11-19T12:56:58;5.37;;;3.70;;
16813;SDS011;8524;57.650;11.926;2023-11-19T12:59:26;4.10;;;3.63;;
16813;SDS011;8524;57.650;11.926;2023-11-19T13:01:53;4.37;;;3.53;;
16813;SDS011;8524;57.650;11.926;2023-11-19T13:04:21;4.43;;;3.43;;
16813;SDS011;8524;57.650;11.926;2023-11-19T13:06:49;4.05;;;3.63;;
16813;SDS011;8524;57.650;11.926;2023-11-19T13:09:23;3.63;;;3.33;;
16813;SDS011;8524;57.650;11.926;2023-11-19T13:11:51;4.07;;;3.55;;
16813;SDS011;8524;57.650;11.926;2023-11-19T13:14:19;3.97;;;3.40;;
16813;SDS011;8524;57.650;11.926;2023-11-19T13:16:47;3.70;;;3.40;;
16813;SDS011;8524;57.650;11.926;2023-11-19T13:19:14;4.05;;;3.55;;
16813;SDS011;8524;57.650;11.926;2023-11-19T13:21:41;5.23;;;2.93;;
16813;SDS011;8524;57.650;11.926;2023-11-19T13:24:11;3.50;;;3.10;;
16813;SDS011;8524;57.650;11.926;2023-11-19T13:26:39;3.50;;;3.20;;
16813;SDS011;8524;57.650;11.926;2023-11-19T13:29:06;3.13;;;2.83;;
16813;SDS011;8524;57.650;11.926;2023-11-19T13:31:33;3.97;;;3.50;;
16813;SDS011;8524;57.650;11.926;2023-11-19T13:34:00;3.60;;;3.20;;
16813;SDS011;8524;57.650;11.926;2023-11-19T13:36:27;2.93;;;2.70;;
16813;SDS011;8524;57.650;11.926;2023-11-19T13:38:53;3.47;;;3.17;;
16813;SDS011;8524;57.650;11.926;2023-11-19T13:41:24;4.37;;;3.00;;
16813;SDS011;8524;57.650;11.926;2023-11-19T13:43:52;4.18;;;3.58;;
16813;SDS011;8524;57.650;11.926;2023-11-19T13:46:20;3.35;;;3.03;;
16813;SDS011;8524;57.650;11.926;2023-11-19T13:48:47;3.67;;;3.27;;
16813;SDS011;8524;57.650;11.926;2023-11-19T13:51:15;3.30;;;3.00;;
16813;SDS011;8524;57.650;11.926;2023-11-19T13:53:42;3.07;;;2.70;;
16813;SDS011;8524;57.650;11.926;2023-11-19T13:56:09;3.58;;;2.90;;
16813;SDS011;8524;57.650;11.926;2023-11-19T13:58:36;3.20;;;2.90;;
16813;SDS011;8524;57.650;11.926;2023-11-19T14:01:05;3.53;;;2.95;;
16813;SDS011;8524;57.650;11.926;2023-11-19T14:03:32;3.07;;;2.77;;
16813;SDS011;8524;57.650;11.926;2023-11-19T14:05:59;3.10;;;2.53;;
16813;SDS011;8524;57.650;11.926;2023-11-19T14:08:26;4.03;;;2.73;;
16813;SDS011;8524;57.650;11.926;2023-11-19T14:10:53;2.93;;;2.53;;
16813;SDS011;8524;57.650;11.926;2023-11-19T14:13:21;4.38;;;3.15;;
16813;SDS011;8524;57.650;11.926;2023-11-19T14:15:48;4.50;;;3.08;;
16813;SDS011;8524;57.650;11.926;2023-11-19T14:18:17;3.25;;;2.95;;
16813;SDS011;8524;57.650;11.926;2023-11-19T14:20:44;4.00;;;2.90;;
16813;SDS011;8524;57.650;11.926;2023-11-19T14:23:11;3.55;;;2.85;;
16813;SDS011;8524;57.650;11.926;2023-11-19T14:25:38;4.13;;;2.67;;
16813;SDS011;8524;57.650;11.926;2023-11-19T14:28:05;3.93;;;2.43;;
16813;SDS011;8524;57.650;11.926;2023-11-19T14:30:32;4.35;;;2.85;;
16813;SDS011;8524;57.650;11.926;2023-11-19T14:32:59;3.20;;;2.63;;
16813;SDS011;8524;57.650;11.926;2023-11-19T14:35:28;2.97;;;2.57;;
16813;SDS011;8524;57.650;11.926;2023-11-19T14:37:57;3.33;;;2.90;;
16813;SDS011;8524;57.650;11.926;2023-11-19T14:40:24;4.30;;;2.97;;
16813;SDS011;8524;57.650;11.926;2023-11-19T14:42:51;2.93;;;2.30;;
16813;SDS011;8524;57.650;11.926;2023-11-19T14:45:18;3.63;;;3.03;;
16813;SDS011;8524;57.650;11.926;2023-11-19T14:47:45;2.77;;;2.40;;
16813;SDS011;8524;57.650;11.926;2023-11-19T14:50:12;4.97;;;3.23;;
16813;SDS011;8524;57.650;11.926;2023-11-19T14:52:40;3.77;;;2.80;;
16813;SDS011;8524;57.650;11.926;2023-11-19T14:55:07;5.33;;;3.20;;
16813;SDS011;8524;57.650;11.926;2023-11-19T14:57:36;5.15;;;3.20;;